createdAt,value
2017-12-11T00:00:45.391Z,3.40
2017-12-11T00:03:12.771Z,3.39
2017-12-11T00:05:40.155Z,3.48
2017-12-11T00:08:07.573Z,3.45
2017-12-11T00:10:34.947Z,3.61
2017-12-11T00:13:02.350Z,3.54
2017-12-11T00:15:29.743Z,3.69
2017-12-11T00:17:57.137Z,3.64
2017-12-11T00:20:24.526Z,3.52
2017-12-11T00:22:51.919Z,3.48
2017-12-11T00:25:19.301Z,3.59
2017-12-11T00:27:46.692Z,3.64
2017-12-11T00:30:14.079Z,3.61
2017-12-11T00:32:41.470Z,3.64
2017-12-11T00:35:08.860Z,3.68
2017-12-11T00:40:10.072Z,3.73
2017-12-11T00:42:37.454Z,3.70
2017-12-11T00:45:04.846Z,3.74
2017-12-11T00:47:32.235Z,3.57
2017-12-11T00:49:59.623Z,3.52
2017-12-11T00:52:27.040Z,3.63
2017-12-11T00:54:54.427Z,3.64
2017-12-11T00:57:21.833Z,3.29
2017-12-11T00:59:49.218Z,3.25
2017-12-11T01:02:16.606Z,3.12
2017-12-11T01:04:43.998Z,3.25
2017-12-11T01:07:11.378Z,3.21
2017-12-11T01:09:38.779Z,3.10
2017-12-11T01:12:06.170Z,2.84
2017-12-11T01:14:33.588Z,2.84
2017-12-11T01:17:01.045Z,2.77
2017-12-11T01:19:28.636Z,2.76
2017-12-11T01:21:56.027Z,2.79
2017-12-11T01:24:23.427Z,2.81
2017-12-11T01:26:50.889Z,2.82
2017-12-11T01:29:18.300Z,2.89
2017-12-11T01:31:45.691Z,2.89
2017-12-11T01:34:13.077Z,2.75
2017-12-11T01:36:40.483Z,2.76
2017-12-11T01:39:07.870Z,2.74
2017-12-11T01:41:35.263Z,2.58
2017-12-11T01:44:02.664Z,2.66
2017-12-11T01:46:30.055Z,2.66
2017-12-11T01:48:57.455Z,2.50
2017-12-11T01:51:24.848Z,2.51
2017-12-11T01:53:52.252Z,2.54
2017-12-11T01:56:19.741Z,2.53
2017-12-11T01:58:47.178Z,2.46
2017-12-11T02:01:14.570Z,2.28
2017-12-11T02:03:41.971Z,2.43
2017-12-11T02:06:09.359Z,2.36
2017-12-11T02:08:36.755Z,2.22
2017-12-11T02:11:04.165Z,2.21
2017-12-11T02:13:31.550Z,2.23
2017-12-11T02:15:58.959Z,2.28
2017-12-11T02:18:26.342Z,2.31
2017-12-11T02:20:53.740Z,2.27
2017-12-11T02:23:21.225Z,2.29
2017-12-11T02:25:48.623Z,2.15
2017-12-11T02:28:16.009Z,2.19
2017-12-11T02:30:43.414Z,2.21
2017-12-11T02:33:10.795Z,2.11
2017-12-11T02:35:38.196Z,2.15
2017-12-11T02:38:05.584Z,2.09
2017-12-11T02:40:32.975Z,2.11
2017-12-11T02:43:00.362Z,1.90
2017-12-11T02:45:27.820Z,1.84
2017-12-11T02:47:55.159Z,1.53
2017-12-11T02:50:22.604Z,1.30
2017-12-11T02:52:49.986Z,1.25
2017-12-11T02:55:17.387Z,1.14
2017-12-11T02:57:44.784Z,0.86
2017-12-11T03:00:12.177Z,0.74
2017-12-11T03:02:39.564Z,0.66
2017-12-11T03:05:06.969Z,0.60
2017-12-11T03:07:34.346Z,0.52
2017-12-11T03:10:01.748Z,0.55
2017-12-11T03:12:29.231Z,0.72
2017-12-11T03:14:56.621Z,0.62
2017-12-11T03:17:24.006Z,0.73
2017-12-11T03:19:51.404Z,0.58
2017-12-11T03:22:18.799Z,0.64
2017-12-11T03:24:46.178Z,0.66
2017-12-11T03:27:13.572Z,0.70
2017-12-11T03:29:40.959Z,0.80
2017-12-11T03:32:08.357Z,0.70
2017-12-11T03:34:35.743Z,0.60
2017-12-11T03:37:03.140Z,0.62
2017-12-11T03:39:30.518Z,0.71
2017-12-11T03:41:57.907Z,0.59
2017-12-11T03:44:25.307Z,0.63
2017-12-11T03:46:52.704Z,0.49
2017-12-11T03:49:20.082Z,0.52
2017-12-11T03:51:47.479Z,0.48
2017-12-11T03:54:14.874Z,0.57
2017-12-11T03:56:42.342Z,0.73
2017-12-11T03:59:09.734Z,0.71
2017-12-11T04:01:37.136Z,0.81
2017-12-11T04:04:04.520Z,0.88
2017-12-11T04:06:31.919Z,0.91
2017-12-11T04:08:59.415Z,0.79
2017-12-11T04:11:26.798Z,0.70
2017-12-11T04:13:54.195Z,0.50
2017-12-11T04:16:21.586Z,0.54
2017-12-11T04:18:48.990Z,0.60
2017-12-11T04:21:16.378Z,0.51
2017-12-11T04:23:43.777Z,0.45
2017-12-11T04:26:11.158Z,0.43
2017-12-11T04:28:38.554Z,0.56
2017-12-11T04:31:05.947Z,0.47
2017-12-11T04:33:33.334Z,0.53
2017-12-11T04:36:00.743Z,0.65
2017-12-11T04:38:28.142Z,0.54
2017-12-11T04:40:55.522Z,0.58
2017-12-11T04:43:22.919Z,0.66
2017-12-11T04:45:50.351Z,0.68
2017-12-11T04:48:17.731Z,0.60
2017-12-11T04:50:45.123Z,0.55
2017-12-11T04:53:12.526Z,0.67
2017-12-11T04:55:39.918Z,0.71
2017-12-11T04:58:07.310Z,0.74
2017-12-11T05:00:34.703Z,0.82
2017-12-11T05:03:02.099Z,0.70
2017-12-11T05:05:29.483Z,0.72
2017-12-11T05:07:56.875Z,0.61
2017-12-11T05:10:24.257Z,0.61
2017-12-11T05:12:51.655Z,0.72
2017-12-11T05:15:19.034Z,0.78
2017-12-11T05:17:46.435Z,0.89
2017-12-11T05:20:13.928Z,0.83
2017-12-11T05:22:41.342Z,0.93
2017-12-11T05:25:08.727Z,0.96
2017-12-11T05:27:36.115Z,0.96
2017-12-11T05:30:03.902Z,1.10
2017-12-11T05:32:31.294Z,1.16
2017-12-11T05:34:58.734Z,1.08
2017-12-11T05:37:26.071Z,1.15
2017-12-11T05:39:53.491Z,1.18
2017-12-11T05:42:20.874Z,1.46
2017-12-11T05:44:48.270Z,1.59
2017-12-11T05:47:15.667Z,1.47
2017-12-11T05:49:43.098Z,1.47
2017-12-11T05:52:10.483Z,1.51
2017-12-11T05:54:37.880Z,1.57
2017-12-11T05:57:05.262Z,1.73
2017-12-11T05:59:32.658Z,1.69
2017-12-11T06:02:00.043Z,1.81
2017-12-11T06:04:27.438Z,1.79
2017-12-11T06:06:54.832Z,1.79
2017-12-11T06:09:22.390Z,1.89
2017-12-11T06:11:49.806Z,1.83
2017-12-11T06:14:17.231Z,1.97
2017-12-11T06:16:44.654Z,2.13
2017-12-11T06:19:12.056Z,2.20
2017-12-11T06:21:39.451Z,2.37
2017-12-11T06:24:06.835Z,2.48
2017-12-11T06:26:34.300Z,2.57
2017-12-11T06:29:01.704Z,2.56
2017-12-11T06:31:29.091Z,2.53
2017-12-11T06:33:56.482Z,2.44
2017-12-11T06:36:23.883Z,2.67
2017-12-11T06:38:51.273Z,2.74
2017-12-11T06:41:18.718Z,2.82
2017-12-11T06:43:46.104Z,2.88
2017-12-11T06:46:13.512Z,3.03
2017-12-11T06:48:40.983Z,3.08
2017-12-11T06:51:08.379Z,3.09
2017-12-11T06:53:35.771Z,3.06
2017-12-11T06:56:03.167Z,3.11
2017-12-11T06:58:30.561Z,3.22
2017-12-11T07:00:57.967Z,3.24
2017-12-11T07:03:25.459Z,3.26
2017-12-11T07:05:52.850Z,3.25
2017-12-11T07:08:20.236Z,3.18
2017-12-11T07:10:47.633Z,3.25
2017-12-11T07:13:15.023Z,3.29
2017-12-11T07:15:42.419Z,3.38
2017-12-11T07:18:09.886Z,3.47
2017-12-11T07:20:37.290Z,3.63
2017-12-11T07:23:04.673Z,3.72
2017-12-11T07:25:32.068Z,3.74
2017-12-11T07:27:59.458Z,3.82
2017-12-11T07:30:26.855Z,3.87
2017-12-11T07:32:54.251Z,3.89
2017-12-11T07:35:21.638Z,3.97
2017-12-11T07:37:49.038Z,3.92
2017-12-11T07:40:16.415Z,3.81
2017-12-11T07:42:43.814Z,3.73
2017-12-11T07:45:11.853Z,3.84
2017-12-11T07:47:39.243Z,3.75
2017-12-11T07:50:06.631Z,3.76
2017-12-11T07:52:34.028Z,3.72
2017-12-11T07:55:01.411Z,3.82
2017-12-11T07:57:28.800Z,3.89
2017-12-11T07:59:56.183Z,3.99
2017-12-11T08:02:23.583Z,3.94
2017-12-11T08:04:50.976Z,4.04
2017-12-11T08:07:18.367Z,3.81
2017-12-11T08:09:45.767Z,3.72
2017-12-11T08:12:13.159Z,3.61
2017-12-11T08:14:40.559Z,3.61
2017-12-11T08:17:07.947Z,3.55
2017-12-11T08:19:35.351Z,3.60
2017-12-11T08:22:02.763Z,3.62
2017-12-11T08:24:30.126Z,3.62
2017-12-11T08:26:57.531Z,3.70
2017-12-11T08:29:24.935Z,3.77
2017-12-11T08:31:52.335Z,3.71
2017-12-11T08:34:19.731Z,3.53
2017-12-11T08:36:47.127Z,3.38
2017-12-11T08:39:14.520Z,3.29
2017-12-11T08:41:41.909Z,3.21
2017-12-11T08:44:09.299Z,3.02
2017-12-11T08:46:36.698Z,2.91
2017-12-11T08:49:04.078Z,2.90
2017-12-11T08:51:31.467Z,2.67
2017-12-11T08:53:58.862Z,2.41
2017-12-11T08:56:26.256Z,2.48
2017-12-11T08:58:53.747Z,2.36
2017-12-11T09:01:21.146Z,2.11
2017-12-11T09:03:48.577Z,2.25
2017-12-11T09:06:15.967Z,2.46
2017-12-11T09:08:43.363Z,2.66
2017-12-11T09:11:10.775Z,2.90
2017-12-11T09:13:38.159Z,3.00
2017-12-11T09:16:05.638Z,3.05
2017-12-11T09:18:33.092Z,3.16
2017-12-11T09:21:00.487Z,3.33
2017-12-11T09:23:27.882Z,3.39
2017-12-11T09:25:55.276Z,3.36
2017-12-11T09:28:22.667Z,3.34
2017-12-11T09:30:50.072Z,3.12
2017-12-11T09:33:17.462Z,3.36
2017-12-11T09:35:44.865Z,3.37
2017-12-11T09:38:12.258Z,3.34
2017-12-11T09:40:39.652Z,3.18
2017-12-11T09:43:07.062Z,3.25
2017-12-11T09:45:34.443Z,3.44
2017-12-11T09:48:01.840Z,3.47
2017-12-11T09:50:29.298Z,3.43
2017-12-11T09:52:57.511Z,3.51
2017-12-11T09:55:24.901Z,3.67
2017-12-11T09:57:52.296Z,3.71
2017-12-11T10:00:19.678Z,3.78
2017-12-11T10:02:47.078Z,3.88
2017-12-11T10:05:14.466Z,3.61
2017-12-11T10:07:41.858Z,3.68
2017-12-11T10:10:09.242Z,3.72
2017-12-11T10:12:36.643Z,3.91
2017-12-11T10:15:04.036Z,4.08
2017-12-11T10:17:31.427Z,3.87
2017-12-11T10:19:58.819Z,3.35
2017-12-11T10:22:26.970Z,3.53
2017-12-11T10:24:54.358Z,3.21
2017-12-11T10:27:21.764Z,3.09
2017-12-11T10:29:49.154Z,3.11
2017-12-11T10:32:17.456Z,3.35
2017-12-11T10:34:44.859Z,3.44
2017-12-11T10:37:12.251Z,3.51
2017-12-11T10:39:39.655Z,3.55
2017-12-11T10:42:07.047Z,3.54
2017-12-11T10:44:34.435Z,3.45
2017-12-11T10:47:01.819Z,3.23
2017-12-11T10:49:29.242Z,3.16
2017-12-11T10:51:56.664Z,3.09
2017-12-11T10:54:24.059Z,2.92
2017-12-11T10:56:51.455Z,2.68
2017-12-11T10:59:18.857Z,2.69
2017-12-11T11:01:46.322Z,2.68
2017-12-11T11:04:13.776Z,2.69
2017-12-11T11:06:41.225Z,2.84
2017-12-11T11:09:08.567Z,2.74
2017-12-11T11:11:35.951Z,2.57
2017-12-11T11:14:03.347Z,2.74
2017-12-11T11:16:30.731Z,2.87
2017-12-11T11:18:58.127Z,2.94
2017-12-11T11:21:25.510Z,2.70
2017-12-11T11:23:52.919Z,2.53
2017-12-11T11:26:20.319Z,2.43
2017-12-11T11:28:47.730Z,2.51
2017-12-11T11:31:15.135Z,2.60
2017-12-11T11:33:42.527Z,2.51
2017-12-11T11:36:09.927Z,2.49
2017-12-11T11:38:37.322Z,2.39
2017-12-11T11:41:04.725Z,2.36
2017-12-11T11:43:32.780Z,2.37
2017-12-11T11:46:00.203Z,2.31
2017-12-11T11:48:27.571Z,2.32
2017-12-11T11:50:54.970Z,2.27
2017-12-11T11:53:22.366Z,2.32
2017-12-11T11:55:49.762Z,2.38
2017-12-11T11:58:17.250Z,2.39
2017-12-11T12:00:44.707Z,2.43
2017-12-11T12:03:12.102Z,2.38
2017-12-11T12:05:39.500Z,2.21
2017-12-11T12:08:06.883Z,2.03
2017-12-11T12:10:34.279Z,2.07
2017-12-11T12:13:01.670Z,2.10
2017-12-11T12:15:29.058Z,2.00
2017-12-11T12:17:56.438Z,1.90
2017-12-11T12:20:23.842Z,1.76
2017-12-11T12:22:51.230Z,1.83
2017-12-11T12:25:18.658Z,1.79
2017-12-11T12:27:46.051Z,1.77
2017-12-11T12:30:13.490Z,1.74
2017-12-11T12:32:40.882Z,1.75
2017-12-11T12:35:08.927Z,1.73
2017-12-11T12:37:36.327Z,1.86
2017-12-11T12:40:03.819Z,1.77
2017-12-11T12:42:31.209Z,1.60
2017-12-11T12:44:58.594Z,1.60
2017-12-11T12:47:25.991Z,1.55
2017-12-11T12:49:53.379Z,1.38
2017-12-11T12:52:20.777Z,1.36
2017-12-11T12:54:48.175Z,1.53
2017-12-11T12:57:15.602Z,1.50
2017-12-11T12:59:42.988Z,1.35
2017-12-11T13:02:10.388Z,1.27
2017-12-11T13:04:38.815Z,1.42
2017-12-11T13:07:06.211Z,1.40
2017-12-11T13:09:33.602Z,1.45
2017-12-11T13:12:00.991Z,1.33
2017-12-11T13:14:28.392Z,1.34
2017-12-11T13:16:55.780Z,1.40
2017-12-11T13:19:23.180Z,1.36
2017-12-11T13:21:50.562Z,1.34
2017-12-11T13:24:17.955Z,1.48
2017-12-11T13:26:45.343Z,1.52
2017-12-11T13:29:12.746Z,1.38
2017-12-11T13:31:40.331Z,1.16
2017-12-11T13:34:07.728Z,1.06
2017-12-11T13:36:35.120Z,1.01
2017-12-11T13:39:02.512Z,0.95
2017-12-11T13:41:29.903Z,0.95
2017-12-11T13:43:57.324Z,0.94
2017-12-11T13:46:24.720Z,0.95
2017-12-11T13:48:52.116Z,0.89
2017-12-11T13:51:19.507Z,0.97
2017-12-11T13:53:46.907Z,1.00
2017-12-11T13:56:14.295Z,0.96
2017-12-11T13:58:41.686Z,0.92
2017-12-11T14:01:09.106Z,0.89
2017-12-11T14:03:36.499Z,0.90
2017-12-11T14:06:03.895Z,1.03
2017-12-11T14:08:31.286Z,1.12
2017-12-11T14:10:58.674Z,1.15
2017-12-11T14:13:26.066Z,1.18
2017-12-11T14:15:53.472Z,1.18
2017-12-11T14:18:20.866Z,1.30
2017-12-11T14:20:48.257Z,1.29
2017-12-11T14:23:15.647Z,1.35
2017-12-11T14:25:43.069Z,1.38
2017-12-11T14:28:10.652Z,1.42
2017-12-11T14:30:37.999Z,1.45
2017-12-11T14:33:05.386Z,1.46
2017-12-11T14:35:32.778Z,1.41
2017-12-11T14:38:00.162Z,1.39
2017-12-11T14:40:27.554Z,1.57
2017-12-11T14:42:54.959Z,1.45
2017-12-11T14:45:22.373Z,1.47
2017-12-11T14:47:49.769Z,1.66
2017-12-11T14:50:17.159Z,1.63
2017-12-11T14:52:44.546Z,1.67
2017-12-11T14:55:11.939Z,1.72
2017-12-11T14:57:39.343Z,1.72
2017-12-11T15:00:06.738Z,1.73
2017-12-11T15:02:34.128Z,1.71
2017-12-11T15:05:01.523Z,1.75
2017-12-11T15:07:28.907Z,1.56
2017-12-11T15:09:56.299Z,1.44
2017-12-11T15:12:23.683Z,1.19
2017-12-11T15:14:51.074Z,1.18
2017-12-11T15:17:18.558Z,0.98
2017-12-11T15:19:45.945Z,0.99
2017-12-11T15:22:13.339Z,1.03
2017-12-11T15:24:40.727Z,1.05
2017-12-11T15:27:08.119Z,0.98
2017-12-11T15:29:35.507Z,0.95
2017-12-11T15:32:02.903Z,0.88
2017-12-11T15:34:30.291Z,0.88
2017-12-11T15:36:57.687Z,0.86
2017-12-11T15:39:25.076Z,0.83
2017-12-11T15:41:52.474Z,0.80
2017-12-11T15:44:19.863Z,0.71
2017-12-11T15:46:47.271Z,0.63
2017-12-11T15:49:14.662Z,0.57
2017-12-11T15:51:42.051Z,0.55
2017-12-11T15:54:09.439Z,0.63
2017-12-11T15:56:36.832Z,0.66
2017-12-11T15:59:04.219Z,0.62
2017-12-11T16:01:31.615Z,0.70
2017-12-11T16:03:59.019Z,0.77
2017-12-11T16:06:26.415Z,0.90
2017-12-11T16:08:54.750Z,0.81
2017-12-11T16:11:22.174Z,0.76
2017-12-11T16:13:49.556Z,0.74
2017-12-11T16:16:16.949Z,0.75
2017-12-11T16:18:44.391Z,0.72
2017-12-11T16:21:11.782Z,0.74
2017-12-11T16:23:39.172Z,0.59
2017-12-11T16:26:06.580Z,0.59
2017-12-11T16:28:34.043Z,0.59
2017-12-11T16:31:01.468Z,0.58
2017-12-11T16:33:28.871Z,0.52
2017-12-11T16:35:56.258Z,0.49
2017-12-11T16:38:23.647Z,0.57
2017-12-11T16:40:51.034Z,0.62
2017-12-11T16:43:18.435Z,0.65
2017-12-11T16:45:45.878Z,0.81
2017-12-11T16:48:13.271Z,1.02
2017-12-11T16:50:40.729Z,1.05
2017-12-11T16:53:08.067Z,1.14
2017-12-11T16:55:35.451Z,1.17
2017-12-11T16:58:02.852Z,1.34
2017-12-11T17:00:30.239Z,1.29
2017-12-11T17:02:57.639Z,1.30
2017-12-11T17:05:25.022Z,1.32
2017-12-11T17:07:52.414Z,1.19
2017-12-11T17:10:19.807Z,1.32
2017-12-11T17:12:47.203Z,1.27
2017-12-11T17:15:14.593Z,1.30
2017-12-11T17:17:41.983Z,1.36
2017-12-11T17:20:09.368Z,1.54
2017-12-11T17:22:36.763Z,1.39
2017-12-11T17:25:04.154Z,1.34
2017-12-11T17:27:31.559Z,1.44
2017-12-11T17:29:58.942Z,1.55
2017-12-11T17:32:26.342Z,1.57
2017-12-11T17:34:53.728Z,1.58
2017-12-11T17:37:21.124Z,1.62
2017-12-11T17:39:48.658Z,1.73
2017-12-11T17:42:16.076Z,1.89
2017-12-11T17:44:43.458Z,2.00
2017-12-11T17:47:10.869Z,1.93
2017-12-11T17:49:38.281Z,1.98
2017-12-11T17:52:05.658Z,1.94
2017-12-11T17:54:33.072Z,2.17
2017-12-11T17:57:00.471Z,2.16
2017-12-11T17:59:27.874Z,2.11
2017-12-11T18:01:55.268Z,2.09
2017-12-11T18:04:22.659Z,1.92
2017-12-11T18:06:50.049Z,2.01
2017-12-11T18:09:17.450Z,2.07
2017-12-11T18:11:44.833Z,2.07
2017-12-11T18:14:12.230Z,2.22
2017-12-11T18:16:39.622Z,2.41
2017-12-11T18:19:07.043Z,2.51
2017-12-11T18:21:34.433Z,2.42
2017-12-11T18:24:01.828Z,2.41
2017-12-11T18:26:29.219Z,2.50
2017-12-11T18:28:56.614Z,2.45
2017-12-11T18:31:24.011Z,2.27
2017-12-11T18:33:51.406Z,2.42
2017-12-11T18:36:18.800Z,2.47
2017-12-11T18:38:46.211Z,2.44
2017-12-11T18:41:13.599Z,2.69
2017-12-11T18:43:41.032Z,2.73
2017-12-11T18:46:08.419Z,2.51
2017-12-11T18:48:35.818Z,2.49
2017-12-11T18:51:03.194Z,2.50
2017-12-11T18:53:30.582Z,2.27
2017-12-11T18:55:57.985Z,2.34
2017-12-11T18:58:25.376Z,2.27
2017-12-11T19:00:52.776Z,2.06
2017-12-11T19:03:20.204Z,2.03
2017-12-11T19:05:47.598Z,1.94
2017-12-11T19:08:15.012Z,1.91
2017-12-11T19:10:42.406Z,1.81
2017-12-11T19:13:09.794Z,1.79
2017-12-11T19:15:37.190Z,1.73
2017-12-11T19:18:04.579Z,1.74
2017-12-11T19:20:32.090Z,1.54
2017-12-11T19:22:59.484Z,1.55
2017-12-11T19:25:26.900Z,1.48
2017-12-11T19:27:54.287Z,1.48
2017-12-11T19:30:21.673Z,1.49
2017-12-11T19:32:49.063Z,1.51
2017-12-11T19:35:16.452Z,1.52
2017-12-11T19:37:43.838Z,1.59
2017-12-11T19:40:11.230Z,1.60
2017-12-11T19:42:38.618Z,1.77
2017-12-11T19:45:06.006Z,1.74
2017-12-11T19:47:33.403Z,1.71
2017-12-11T19:50:00.796Z,1.65
2017-12-11T19:52:28.216Z,1.69
2017-12-11T19:54:55.603Z,1.58
2017-12-11T19:57:22.995Z,1.58
2017-12-11T19:59:50.395Z,1.68
2017-12-11T20:02:17.787Z,1.64
2017-12-11T20:04:45.178Z,1.83
2017-12-11T20:07:12.576Z,1.79
2017-12-11T20:09:39.962Z,1.79
2017-12-11T20:12:07.375Z,1.68
2017-12-11T20:14:34.768Z,1.75
2017-12-11T20:17:02.167Z,1.78
2017-12-11T20:19:29.559Z,1.75
2017-12-11T20:21:56.963Z,1.77
2017-12-11T20:24:24.370Z,1.81
2017-12-11T20:26:51.830Z,1.86
2017-12-11T20:29:19.228Z,1.79
2017-12-11T20:31:46.963Z,1.82
2017-12-11T20:34:14.370Z,1.80
2017-12-11T20:36:41.859Z,1.87
2017-12-11T20:39:09.255Z,1.84
2017-12-11T20:41:36.645Z,1.93
2017-12-11T20:44:04.048Z,2.02
2017-12-11T20:46:31.442Z,2.04
2017-12-11T20:48:58.941Z,2.06
2017-12-11T20:51:26.373Z,2.16
2017-12-11T20:53:53.771Z,2.12
2017-12-11T20:56:21.152Z,2.08
2017-12-11T20:58:48.548Z,2.37
2017-12-11T21:01:15.931Z,2.25
2017-12-11T21:03:43.330Z,2.27
2017-12-11T21:06:10.822Z,2.36
2017-12-11T21:08:38.215Z,2.68
2017-12-11T21:11:05.603Z,2.39
2017-12-11T21:13:33.007Z,2.40
2017-12-11T21:16:00.405Z,2.47
2017-12-11T21:18:27.811Z,2.35
2017-12-11T21:23:28.998Z,2.44
2017-12-11T21:25:56.488Z,2.53
2017-12-11T21:28:23.897Z,2.50
2017-12-11T21:30:51.331Z,2.54
2017-12-11T21:33:18.726Z,2.57
2017-12-11T21:35:46.208Z,2.56
2017-12-11T21:38:13.591Z,2.58
2017-12-11T21:40:40.987Z,2.64
2017-12-11T21:43:08.377Z,2.67
2017-12-11T21:45:35.773Z,2.55
2017-12-11T21:48:03.159Z,2.64
2017-12-11T21:50:30.546Z,2.71
2017-12-11T21:52:57.948Z,2.83
2017-12-11T21:55:25.344Z,2.88
2017-12-11T21:57:52.731Z,2.81
2017-12-11T22:00:20.126Z,2.78
2017-12-11T22:02:47.536Z,2.96
2017-12-11T22:05:14.927Z,3.02
2017-12-11T22:07:42.315Z,3.00
2017-12-11T22:10:09.711Z,3.06
2017-12-11T22:12:37.106Z,3.02
2017-12-11T22:15:04.507Z,3.06
2017-12-11T22:17:31.920Z,3.11
2017-12-11T22:19:59.316Z,3.24
2017-12-11T22:22:26.711Z,3.30
2017-12-11T22:24:54.113Z,3.26
2017-12-11T22:27:21.539Z,3.23
2017-12-11T22:29:48.939Z,3.39
2017-12-11T22:32:16.347Z,3.34
2017-12-11T22:34:43.735Z,3.57
2017-12-11T22:37:11.122Z,3.60
2017-12-11T22:39:38.528Z,3.76
2017-12-11T22:42:05.918Z,3.89
2017-12-11T22:44:33.327Z,3.97
2017-12-11T22:47:00.734Z,4.15
2017-12-11T22:49:28.154Z,4.16
2017-12-11T22:51:55.567Z,4.06
2017-12-11T22:54:22.938Z,4.10
2017-12-11T22:56:50.330Z,4.00
2017-12-11T22:59:17.731Z,3.95
2017-12-11T23:01:45.134Z,3.98
2017-12-11T23:04:12.525Z,4.15
2017-12-11T23:06:39.925Z,3.98
2017-12-11T23:09:07.321Z,3.82
2017-12-11T23:11:34.723Z,3.83
2017-12-11T23:14:02.116Z,3.84
2017-12-11T23:16:29.518Z,4.04
2017-12-11T23:18:56.926Z,3.99
2017-12-11T23:21:24.306Z,4.00
2017-12-11T23:23:51.714Z,3.98
2017-12-11T23:26:19.094Z,3.98
2017-12-11T23:28:46.491Z,4.16
2017-12-11T23:31:13.888Z,4.39
2017-12-11T23:33:41.282Z,4.38
2017-12-11T23:36:08.670Z,4.29
2017-12-11T23:38:36.156Z,4.18
2017-12-11T23:41:03.540Z,4.22
2017-12-11T23:43:30.932Z,4.28
2017-12-11T23:45:58.327Z,4.35
2017-12-11T23:48:26.418Z,4.51
2017-12-11T23:50:53.807Z,4.70
2017-12-11T23:53:21.214Z,4.59
2017-12-11T23:55:48.598Z,4.71
2017-12-11T23:58:16.003Z,4.67
